CheckWX is a tool to help pilots better visualize weather data.  It is not intended as a substitute for an official pre-flight weather briefing.

18:36:04 UTC

KINW METAR
Winslow-Lindbergh Regional Airport
Winslow, Arizona, USA
Current

40 mins ago

KINW 221756Z AUTO 30005KT 10SM FEW032 BKN075 BKN090 M01/M03 A2973 RMK AO2 SNE21 PRESFR SLP079 P0000 60008 T10111028 11011 21028 50015
Observed
Feb-22 @ 17:56 UTC
Wind
  • 300° at 5 KTS
Visibility
10 SM
Flight Rules
VFR
Cloud Levels
  • Few at 3,200' AGL
  • Broken at 7,500' AGL
  • Broken at 9,000' AGL
Temperature
-1°C / 30°F
Dewpoint
-3°C / 27°F
Humidity
86%
Altimeter
29.73" Hg
Pressure
1007.9 hPa
Current Rain
0.01"
Previous

1 hour ago

KINW 221715Z AUTO 25005KT 4SM -SN BR OVC031 M02/M03 A2975 RMK AO2 P0000 T10171028
Observed
Feb-22 @ 17:15 UTC
Wind
  • 250° at 5 KTS
Visibility
4 SM
Flight Rules
MVFR
Conditions
Light Snow, Mist
Cloud Levels
  • Overcast at 3,100' AGL
Temperature
-2°C / 28°F
Dewpoint
-3°C / 27°F
Humidity
93%
Altimeter
29.75" Hg
Pressure
1007.42 hPa
Current Rain
0.01"
Previous

2 hours ago

KINW 221656Z AUTO 25007KT 1 1/2SM -SN BR BKN021 OVC030 M02/M03 A2973 RMK AO2 SLP081 P0002 T10171028
Observed
Feb-22 @ 16:56 UTC
Wind
  • 250° at 7 KTS
Visibility
1 1/2 SM
Flight Rules
IFR
Conditions
Light Snow, Mist
Cloud Levels
  • Broken at 2,100' AGL
  • Overcast at 3,000' AGL
Temperature
-2°C / 28°F
Dewpoint
-3°C / 27°F
Humidity
93%
Altimeter
29.73" Hg
Pressure
1008.1 hPa
Current Rain
0.02"